Time;durP1;ratioP1;P1;durP2;ratioP2;P2;SDS_P1;SDS_P2;PMS_P1;PMS_P2;Temp;Humidity;BMP_temperature;BMP_pressure;BME280_temperature;BME280_humidity;BME280_pressure;Samples;Min_cycle;Max_cycle;Signal;HPM_P1;HPM_P2
2022/01/19 00:00:24;;;;;;;64.43;15.70;;;2.70;99.90;;;;;;5068911;28;20808;-88
2022/01/19 00:02:52;;;;;;;65.47;16.07;;;;;;;;;;5068983;28;20603;-88
2022/01/19 00:05:19;;;;;;;67.30;17.17;;;;;;;;;;5068716;28;20232;-88
2022/01/19 00:07:46;;;;;;;58.80;15.00;;;2.80;99.90;;;;;;5065749;28;20258;-88
2022/01/19 00:10:16;;;;;;;63.90;15.13;;;2.90;99.90;;;;;;5068140;28;20219;-88
2022/01/19 00:12:45;;;;;;;64.00;16.37;;;;;;;;;;5069089;28;20201;-88
2022/01/19 00:15:12;;;;;;;62.10;15.33;;;2.80;99.90;;;;;;5068086;28;20232;-88
2022/01/19 00:17:41;;;;;;;63.77;15.30;;;;;;;;;;5069057;28;20216;-87
2022/01/19 00:20:09;;;;;;;64.77;15.90;;;2.90;99.90;;;;;;5058266;28;20209;-88
2022/01/19 00:22:37;;;;;;;66.30;15.97;;;2.90;99.90;;;;;;5060841;28;20208;-88
2022/01/19 00:25:05;;;;;;;62.37;14.97;;;2.90;99.90;;;;;;5067680;28;20339;-87
2022/01/19 00:27:32;;;;;;;49.60;12.50;;;3.00;99.90;;;;;;5067398;28;20319;-88
2022/01/19 00:29:59;;;;;;;56.70;13.27;;;2.90;99.90;;;;;;5065869;28;20209;-88
2022/01/19 00:32:27;;;;;;;64.73;15.60;;;2.90;99.90;;;;;;5067068;28;20200;-88
2022/01/19 00:34:55;;;;;;;60.60;14.13;;;2.80;99.90;;;;;;5065816;28;20712;-87
2022/01/19 00:37:22;;;;;;;53.77;12.47;;;2.70;99.90;;;;;;5083434;28;20197;-87
2022/01/19 00:39:49;;;;;;;54.13;12.93;;;2.80;99.90;;;;;;5068410;28;20216;-88
2022/01/19 00:42:16;;;;;;;52.03;12.83;;;2.90;99.90;;;;;;5059669;28;20208;-88
2022/01/19 00:44:43;;;;;;;59.67;13.93;;;2.90;99.90;;;;;;5067543;28;20220;-88
2022/01/19 00:47:10;;;;;;;59.93;14.63;;;2.90;99.90;;;;;;5066919;28;20208;-88
2022/01/19 00:49:36;;;;;;;58.20;14.30;;;3.00;99.90;;;;;;5068772;28;20652;-88
2022/01/19 00:52:06;;;;;;;60.53;14.90;;;3.10;99.90;;;;;;5068885;28;20266;-88
2022/01/19 00:54:32;;;;;;;59.93;14.90;;;3.10;99.90;;;;;;5069557;28;20704;-88
2022/01/19 00:57:00;;;;;;;51.53;12.93;;;;;;;;;;5065961;28;20208;-88
2022/01/19 00:59:27;;;;;;;49.47;12.57;;;3.10;99.90;;;;;;5067222;28;20243;-88
2022/01/19 01:01:54;;;;;;;54.50;14.23;;;3.00;99.90;;;;;;5068106;28;20307;-88
2022/01/19 01:04:21;;;;;;;57.73;14.27;;;2.90;99.90;;;;;;5065745;28;20232;-88
2022/01/19 01:06:48;;;;;;;59.77;14.23;;;3.50;99.90;;;;;;5068077;28;20216;-88
2022/01/19 01:09:16;;;;;;;56.63;13.93;;;2.80;99.90;;;;;;5068237;28;20217;-87
2022/01/19 01:11:57;;;;;;;57.40;15.07;;;2.80;99.90;;;;;;5069189;28;20200;-87
2022/01/19 01:18:17;;;;;;;55.53;14.70;;;2.70;99.90;;;;;;5067533;28;20254;-88
2022/01/19 01:20:01;;;;;;;62.47;15.10;;;2.60;99.90;;;;;;5070687;28;20325;-88
2022/01/19 01:22:29;;;;;;;53.60;14.03;;;;;;;;;;5097378;28;20197;-88
2022/01/19 01:24:57;;;;;;;56.67;14.13;;;2.50;99.90;;;;;;5095418;28;20269;-88
2022/01/19 01:27:24;;;;;;;58.83;14.53;;;2.50;99.90;;;;;;5083569;28;20235;-87
2022/01/19 01:29:51;;;;;;;58.23;14.40;;;2.40;99.90;;;;;;5066062;28;20665;-87
2022/01/19 01:32:18;;;;;;;53.10;13.97;;;2.40;99.90;;;;;;5066351;28;20209;-87
2022/01/19 01:34:45;;;;;;;52.97;12.93;;;4.20;99.90;;;;;;5066234;28;20835;-87
2022/01/19 01:37:12;;;;;;;59.97;14.87;;;2.10;99.90;;;;;;5067639;28;20213;-87
2022/01/19 01:39:39;;;;;;;56.63;14.67;;;;;;;;;;5067002;28;20236;-87
2022/01/19 01:42:12;;;;;;;58.93;15.03;;;;;;;;;;5067186;28;20200;-87
2022/01/19 01:44:43;;;;;;;61.47;15.73;;;2.00;99.90;;;;;;5066451;28;20224;-88
2022/01/19 01:47:12;;;;;;;58.37;15.43;;;;;;;;;;5066817;28;20212;-87
2022/01/19 01:53:25;;;;;;;62.37;15.63;;;2.00;99.90;;;;;;5067106;28;20537;-88
2022/01/19 01:55:20;;;;;;;52.97;14.17;;;1.90;99.90;;;;;;5045010;28;20260;-87
2022/01/19 01:57:49;;;;;;;51.77;14.03;;;1.90;99.90;;;;;;5068145;28;20196;-87
2022/01/19 02:00:20;;;;;;;53.97;14.03;;;1.90;99.90;;;;;;5066051;28;20224;-87
2022/01/19 02:02:48;;;;;;;69.17;16.30;;;1.80;99.90;;;;;;5068128;28;20204;-88
2022/01/19 02:05:22;;;;;;;57.97;15.23;;;1.70;99.90;;;;;;5068368;28;20714;-88
2022/01/19 02:08:01;;;;;;;43.73;12.00;;;1.70;99.90;;;;;;5066785;28;20272;-87
2022/01/19 02:10:37;;;;;;;53.87;13.53;;;1.50;99.90;;;;;;5064172;28;20204;-87
2022/01/19 02:16:18;;;;;;;68.60;17.03;;;1.50;99.90;;;;;;5068194;28;20228;-86
2022/01/19 02:21:39;;;;;;;62.77;15.67;;;1.50;99.90;;;;;;5100872;28;20200;-87
2022/01/19 02:24:10;;;;;;;61.90;15.10;;;1.50;99.90;;;;;;5087718;28;20233;-87
2022/01/19 02:26:51;;;;;;;59.53;14.30;;;1.50;99.90;;;;;;5088485;28;20262;-85
2022/01/19 02:29:42;;;;;;;83.00;18.63;;;1.60;99.90;;;;;;5090263;28;20196;-84
2022/01/19 02:40:33;;;;;;;57.70;15.10;;;1.90;99.90;;;;;;5022139;28;20656;-87
2022/01/19 02:43:08;;;;;;;51.33;13.67;;;3.10;99.90;;;;;;5070150;28;20209;-86
2022/01/19 02:51:09;;;;;;;57.20;15.00;;;2.30;99.90;;;;;;5073218;28;20349;-87
2022/01/19 02:53:38;;;;;;;52.97;12.50;;;2.50;99.90;;;;;;5073805;28;20205;-87
2022/01/19 02:56:10;;;;;;;55.27;13.67;;;2.60;99.90;;;;;;5072493;28;20270;-86
2022/01/19 02:58:44;;;;;;;49.10;12.17;;;2.70;99.90;;;;;;5084382;28;20325;-87
2022/01/19 03:09:27;;;;;;;51.43;14.17;;;3.30;99.90;;;;;;5077428;28;20200;-87
2022/01/19 03:11:54;;;;;;;49.80;12.17;;;3.40;99.90;;;;;;5077960;28;20242;-87
2022/01/19 03:14:21;;;;;;;52.07;12.20;;;3.50;99.90;;;;;;5085614;28;20220;-86
2022/01/19 03:16:48;;;;;;;58.63;13.63;;;3.50;99.90;;;;;;5082901;28;20212;-87
2022/01/19 03:19:16;;;;;;;49.13;14.23;;;3.80;99.90;;;;;;5085785;28;20246;-86
2022/01/19 03:21:43;;;;;;;54.37;14.87;;;3.70;99.90;;;;;;5090819;28;20395;-87
2022/01/19 03:24:11;;;;;;;60.87;15.33;;;3.80;99.90;;;;;;5091267;28;20197;-86
2022/01/19 03:26:40;;;;;;;53.00;12.90;;;3.80;99.90;;;;;;5088967;28;20221;-86
2022/01/19 03:29:23;;;;;;;49.07;13.53;;;3.90;99.90;;;;;;5091747;28;20265;-87
2022/01/19 03:31:50;;;;;;;98.33;20.37;;;3.90;99.90;;;;;;5091580;28;20188;-87
2022/01/19 03:34:17;;;;;;;45.90;13.90;;;;;;;;;;5100460;28;20287;-86
2022/01/19 03:36:47;;;;;;;45.47;12.53;;;3.90;99.90;;;;;;5091302;28;20193;-86
2022/01/19 03:39:15;;;;;;;54.87;13.90;;;3.40;99.90;;;;;;5092648;28;20220;-87
2022/01/19 03:41:43;;;;;;;48.43;14.10;;;5.30;99.90;;;;;;5092445;28;20370;-86
2022/01/19 03:44:10;;;;;;;54.23;13.70;;;3.80;99.90;;;;;;5090912;28;20192;-88
2022/01/19 03:46:46;;;;;;;43.40;10.30;;;3.80;99.90;;;;;;5086181;28;20192;-87
2022/01/19 03:49:22;;;;;;;41.87;11.80;;;3.80;99.90;;;;;;5095420;28;20208;-87
2022/01/19 03:51:49;;;;;;;60.67;16.27;;;3.80;99.90;;;;;;5082340;28;20209;-87
2022/01/19 03:54:16;;;;;;;55.23;15.47;;;3.80;99.90;;;;;;5069724;28;20203;-87
2022/01/19 03:56:44;;;;;;;44.80;12.30;;;;;;;;;;5071877;28;20217;-87
2022/01/19 03:59:11;;;;;;;43.47;11.17;;;3.90;99.90;;;;;;5069229;28;20656;-87
2022/01/19 04:01:38;;;;;;;52.50;13.57;;;4.00;99.90;;;;;;5069511;28;20215;-87
2022/01/19 04:06:57;;;;;;;41.90;13.13;;;4.10;99.90;;;;;;5078859;28;20196;-86
2022/01/19 04:09:25;;;;;;;49.90;13.67;;;4.20;99.90;;;;;;5092184;28;20512;-86
2022/01/19 04:11:55;;;;;;;53.23;14.00;;;;;;;;;;5079393;28;20744;-87
2022/01/19 04:14:23;;;;;;;49.93;14.53;;;4.50;99.90;;;;;;5069200;28;20934;-87
2022/01/19 04:16:51;;;;;;;57.37;15.60;;;4.60;99.90;;;;;;5069429;28;20291;-87
2022/01/19 04:19:25;;;;;;;36.00;11.50;;;4.70;99.90;;;;;;5085831;28;20217;-87
2022/01/19 04:22:00;;;;;;;57.77;15.63;;;5.40;99.90;;;;;;5068621;28;20707;-87
2022/01/19 04:24:29;;;;;;;52.50;15.70;;;4.90;99.90;;;;;;5068848;28;20262;-87
2022/01/19 04:29:49;;;;;;;61.43;18.23;;;5.00;99.90;;;;;;5072547;28;20216;-87
2022/01/19 04:32:20;;;;;;;57.40;17.40;;;5.00;99.90;;;;;;5059992;28;20223;-87
2022/01/19 04:34:49;;;;;;;65.20;18.93;;;5.00;99.90;;;;;;5082894;28;20331;-87
2022/01/19 04:48:46;;;;;;;69.60;20.73;;;5.20;99.90;;;;;;5067533;28;20215;-87
2022/01/19 05:02:27;;;;;;;64.97;18.33;;;5.30;99.90;;;;;;5083768;28;20212;-87
2022/01/19 05:05:12;;;;;;;66.77;19.60;;;5.20;99.90;;;;;;5065637;28;20229;-87
2022/01/19 05:07:54;;;;;;;67.17;17.80;;;5.20;99.90;;;;;;5066977;28;20226;-87
2022/01/19 05:13:27;;;;;;;62.30;17.33;;;5.20;99.90;;;;;;5065520;28;20282;-87
2022/01/19 05:15:56;;;;;;;58.50;15.03;;;5.20;99.90;;;;;;5065832;28;20711;-86
2022/01/19 05:18:24;;;;;;;70.73;20.10;;;5.20;99.90;;;;;;5058952;28;20266;-87
2022/01/19 05:20:51;;;;;;;67.17;18.63;;;1.70;99.90;;;;;;5068529;28;20204;-87
2022/01/19 05:23:41;;;;;;;72.03;18.93;;;5.20;99.90;;;;;;5061842;28;20223;-87
2022/01/19 05:26:08;;;;;;;75.07;20.10;;;5.30;99.90;;;;;;5066815;28;20278;-86
2022/01/19 05:28:40;;;;;;;54.43;16.57;;;5.30;99.90;;;;;;5063077;28;20205;-87
2022/01/19 05:31:09;;;;;;;52.13;15.20;;;5.30;99.90;;;;;;5065464;28;20220;-88
2022/01/19 05:33:36;;;;;;;70.13;19.50;;;5.30;99.90;;;;;;5066078;28;20737;-88
2022/01/19 05:36:04;;;;;;;46.20;13.60;;;5.30;99.90;;;;;;5066983;28;20242;-87
2022/01/19 05:38:50;;;;;;;59.27;16.80;;;5.40;99.90;;;;;;5068015;28;20702;-87
2022/01/19 05:41:40;;;;;;;61.83;17.73;;;5.40;99.90;;;;;;5066969;28;20661;-87
2022/01/19 05:44:09;;;;;;;57.17;15.40;;;5.40;99.90;;;;;;5065665;28;20218;-87
2022/01/19 05:46:37;;;;;;;62.80;18.23;;;5.40;99.90;;;;;;5066510;28;20968;-87
2022/01/19 05:49:04;;;;;;;64.40;17.57;;;5.40;99.90;;;;;;5065549;28;20213;-87
2022/01/19 05:51:32;;;;;;;59.97;17.07;;;5.40;99.90;;;;;;5065376;28;20223;-86
2022/01/19 05:53:59;;;;;;;61.17;16.97;;;5.40;99.90;;;;;;5066511;28;20284;-87
2022/01/19 05:56:27;;;;;;;54.27;14.57;;;5.40;99.90;;;;;;5065486;28;20247;-88
2022/01/19 05:59:22;;;;;;;58.80;15.97;;;5.40;99.90;;;;;;5055372;28;20229;-88
2022/01/19 06:01:51;;;;;;;73.57;19.87;;;;;;;;;;5065079;28;20623;-89
2022/01/19 06:04:18;;;;;;;50.13;15.30;;;5.40;99.90;;;;;;5066784;28;20299;-87
2022/01/19 06:07:28;;;;;;;59.70;16.77;;;5.40;99.90;;;;;;5038354;28;20723;-87
2022/01/19 06:10:05;;;;;;;47.77;13.87;;;5.90;99.90;;;;;;5034280;28;20206;-87
2022/01/19 06:12:37;;;;;;;47.80;15.90;;;5.40;99.90;;;;;;5059844;28;20246;-87
2022/01/19 06:15:05;;;;;;;50.60;14.10;;;5.40;99.90;;;;;;5066739;28;20240;-86
2022/01/19 06:17:33;;;;;;;58.20;17.27;;;5.40;99.90;;;;;;5066353;28;20212;-86
2022/01/19 06:20:02;;;;;;;65.57;17.80;;;5.40;99.90;;;;;;5066389;28;20232;-86
2022/01/19 06:22:30;;;;;;;53.73;14.47;;;5.40;99.90;;;;;;5060538;28;20204;-86
2022/01/19 06:24:58;;;;;;;65.57;18.23;;;5.30;99.90;;;;;;5066222;28;20225;-87
2022/01/19 06:27:27;;;;;;;70.00;18.63;;;5.30;99.90;;;;;;5068512;28;20208;-86
2022/01/19 06:29:54;;;;;;;55.60;13.97;;;5.30;99.90;;;;;;5068381;28;20313;-87
2022/01/19 06:32:21;;;;;;;60.80;17.20;;;5.20;99.90;;;;;;5067047;28;20204;-86
2022/01/19 06:34:50;;;;;;;58.07;16.47;;;5.50;99.90;;;;;;5063696;28;20224;-86
2022/01/19 06:37:23;;;;;;;62.90;17.43;;;5.30;99.90;;;;;;5066680;28;20305;-86
2022/01/19 06:40:13;;;;;;;61.87;16.07;;;5.30;99.90;;;;;;5064459;28;20233;-88
2022/01/19 06:42:40;;;;;;;59.70;15.77;;;5.30;99.90;;;;;;5067226;28;20212;-88
2022/01/19 06:45:09;;;;;;;56.53;17.10;;;5.30;99.90;;;;;;5067771;28;20240;-88
2022/01/19 06:47:40;;;;;;;75.10;19.50;;;5.30;99.90;;;;;;5067634;28;20215;-88
2022/01/19 06:50:11;;;;;;;79.50;19.57;;;5.30;99.90;;;;;;5084493;28;20196;-89
2022/01/19 06:52:41;;;;;;;59.43;17.80;;;5.30;99.90;;;;;;5080932;28;20240;-87
2022/01/19 06:55:10;;;;;;;61.10;17.70;;;5.30;99.90;;;;;;5084494;28;20239;-87
2022/01/19 06:57:37;;;;;;;56.93;16.47;;;5.30;99.90;;;;;;5082700;28;20296;-86
2022/01/19 07:00:22;;;;;;;63.10;17.03;;;5.30;99.90;;;;;;5080485;28;20228;-86
2022/01/19 07:03:10;;;;;;;61.83;16.13;;;5.30;99.90;;;;;;5077681;28;20274;-86
2022/01/19 07:06:01;;;;;;;56.57;18.27;;;5.30;99.90;;;;;;5060780;28;20225;-87
2022/01/19 07:08:34;;;;;;;59.83;17.80;;;5.30;99.90;;;;;;5064324;28;20303;-86
2022/01/19 07:11:01;;;;;;;63.63;17.97;;;5.40;99.90;;;;;;5067316;28;20263;-86
2022/01/19 07:13:28;;;;;;;64.47;18.30;;;5.40;99.90;;;;;;5072343;28;20205;-87
2022/01/19 07:15:55;;;;;;;66.23;19.17;;;7.20;99.90;;;;;;5069178;28;20770;-87
2022/01/19 07:18:23;;;;;;;67.20;18.87;;;5.50;99.90;;;;;;5072145;28;20644;-87
2022/01/19 07:20:52;;;;;;;62.50;18.10;;;5.50;99.90;;;;;;5072784;28;20295;-87
2022/01/19 07:23:22;;;;;;;64.73;19.63;;;5.50;99.90;;;;;;5071263;28;20304;-86
2022/01/19 07:25:49;;;;;;;66.03;19.27;;;5.50;99.90;;;;;;5068458;28;20323;-87
2022/01/19 07:28:16;;;;;;;56.40;17.47;;;5.80;99.90;;;;;;5072832;28;20274;-87
2022/01/19 07:30:46;;;;;;;44.13;16.00;;;5.50;99.90;;;;;;5084478;28;20223;-88
2022/01/19 07:33:14;;;;;;;55.23;16.60;;;5.60;99.90;;;;;;5074160;28;20391;-88
2022/01/19 07:35:42;;;;;;;46.47;16.20;;;5.60;99.90;;;;;;5091332;28;20217;-89
2022/01/19 07:38:11;;;;;;;48.17;15.97;;;5.60;99.90;;;;;;5095718;28;20196;-89
2022/01/19 07:40:41;;;;;;;43.90;14.20;;;;;;;;;;5094520;28;20228;-90
2022/01/19 07:43:08;;;;;;;52.37;17.67;;;5.60;99.90;;;;;;5079966;28;20206;-88
2022/01/19 07:45:55;;;;;;;35.20;13.37;;;5.60;99.90;;;;;;5052759;28;20232;-89
2022/01/19 07:48:56;;;;;;;51.97;13.87;;;5.50;99.90;;;;;;5098505;28;20223;-89
2022/01/19 07:51:30;;;;;;;56.83;17.33;;;5.50;99.90;;;;;;5094647;28;20318;-89
2022/01/19 07:54:09;;;;;;;57.90;18.23;;;5.50;99.90;;;;;;5079988;28;20256;-88
2022/01/19 07:56:58;;;;;;;59.87;18.63;;;5.50;99.90;;;;;;5074389;28;20215;-89
2022/01/19 07:59:42;;;;;;;57.97;18.57;;;5.50;99.90;;;;;;5070336;28;20209;-88
2022/01/19 08:02:12;;;;;;;54.83;17.53;;;5.50;99.90;;;;;;5074292;28;20205;-88
2022/01/19 08:04:58;;;;;;;52.60;16.93;;;5.50;99.90;;;;;;5076624;28;20293;-87
2022/01/19 08:07:28;;;;;;;45.67;15.40;;;5.60;99.90;;;;;;5072425;28;20209;-88
2022/01/19 08:09:55;;;;;;;52.10;17.47;;;5.60;99.90;;;;;;5066754;28;20220;-88
2022/01/19 08:12:26;;;;;;;54.30;17.57;;;;;;;;;;5074223;28;20204;-88
2022/01/19 08:14:53;;;;;;;57.07;17.90;;;5.60;99.90;;;;;;5070233;28;20233;-88
2022/01/19 08:17:27;;;;;;;51.73;15.67;;;5.60;99.90;;;;;;5073340;28;20199;-88
2022/01/19 08:19:57;;;;;;;59.27;19.23;;;5.80;99.90;;;;;;5073773;28;20720;-88
2022/01/19 08:22:24;;;;;;;63.63;19.67;;;5.60;99.90;;;;;;5074219;28;20239;-88
2022/01/19 08:25:14;;;;;;;59.70;17.50;;;5.70;99.90;;;;;;5067180;28;20308;-88
2022/01/19 08:27:43;;;;;;;57.07;17.30;;;5.70;99.90;;;;;;5073961;28;20213;-88
2022/01/19 08:30:12;;;;;;;57.43;17.90;;;5.70;99.90;;;;;;5071707;28;20216;-89
2022/01/19 08:32:42;;;;;;;66.73;19.20;;;5.70;99.90;;;;;;5071953;28;20205;-89
2022/01/19 08:35:11;;;;;;;52.53;16.73;;;5.70;99.90;;;;;;5070699;28;20240;-88
2022/01/19 08:37:57;;;;;;;68.60;20.63;;;5.70;99.90;;;;;;5068355;28;20798;-88
2022/01/19 08:40:28;;;;;;;65.27;18.73;;;6.90;99.90;;;;;;5068205;28;20639;-88
2022/01/19 08:43:08;;;;;;;56.77;18.60;;;;;;;;;;5067095;28;20212;-88
2022/01/19 08:45:36;;;;;;;61.67;16.13;;;5.80;99.90;;;;;;5068008;28;20233;-89
2022/01/19 08:48:04;;;;;;;62.43;19.60;;;5.70;99.90;;;;;;5070034;28;20213;-89
2022/01/19 08:50:46;;;;;;;63.33;19.57;;;5.80;99.90;;;;;;5071894;28;20209;-88
2022/01/19 08:53:46;;;;;;;62.17;19.00;;;5.70;99.90;;;;;;5049298;28;20208;-89
2022/01/19 08:56:29;;;;;;;64.53;19.63;;;5.80;99.90;;;;;;5069250;28;20588;-88
2022/01/19 08:58:57;;;;;;;70.63;20.13;;;;;;;;;;5067903;28;20215;-88
2022/01/19 09:01:24;;;;;;;70.53;20.20;;;5.70;99.90;;;;;;5069651;28;20253;-88
2022/01/19 09:03:52;;;;;;;65.30;18.13;;;5.70;99.90;;;;;;5073309;28;20200;-88
2022/01/19 09:06:20;;;;;;;59.57;18.10;;;5.70;99.90;;;;;;5070732;28;20225;-88
2022/01/19 09:08:47;;;;;;;54.07;17.57;;;5.70;99.90;;;;;;5073318;28;20208;-87
2022/01/19 09:11:14;;;;;;;60.70;18.07;;;6.00;99.90;;;;;;5070463;28;20231;-88
2022/01/19 09:13:41;;;;;;;52.07;18.53;;;5.70;99.90;;;;;;5072629;28;20216;-87
2022/01/19 09:16:09;;;;;;;66.67;17.37;;;;;;;;;;5082245;28;20303;-89
2022/01/19 09:18:36;;;;;;;56.87;17.70;;;5.70;99.90;;;;;;5074690;28;20212;-89
2022/01/19 09:21:03;;;;;;;53.63;17.47;;;5.80;99.90;;;;;;5073874;28;20700;-88
2022/01/19 09:23:30;;;;;;;51.90;16.70;;;;;;;;;;5072140;28;20561;-88
2022/01/19 09:25:57;;;;;;;67.97;19.97;;;5.90;99.90;;;;;;5066248;28;20233;-88
2022/01/19 09:28:24;;;;;;;57.70;16.37;;;5.90;99.90;;;;;;5074976;28;20231;-88
2022/01/19 09:30:51;;;;;;;63.27;18.83;;;5.90;99.90;;;;;;5072506;28;20234;-89
2022/01/19 09:33:22;;;;;;;54.07;16.83;;;5.90;99.90;;;;;;5073893;28;20805;-89
2022/01/19 09:36:07;;;;;;;61.50;18.10;;;5.90;99.90;;;;;;5072703;28;20267;-88
2022/01/19 09:38:36;;;;;;;55.90;17.83;;;6.00;99.90;;;;;;5066166;28;20219;-89
2022/01/19 09:41:06;;;;;;;66.77;18.53;;;7.10;99.90;;;;;;5082997;28;20224;-89
2022/01/19 09:43:33;;;;;;;64.67;20.13;;;6.10;99.90;;;;;;5062881;28;20644;-88
2022/01/19 09:46:01;;;;;;;70.83;20.53;;;6.20;99.90;;;;;;5067426;28;20228;-88
2022/01/19 09:48:30;;;;;;;64.60;20.20;;;6.20;99.90;;;;;;5066718;28;20217;-88
2022/01/19 09:50:58;;;;;;;68.90;19.73;;;6.20;99.90;;;;;;5068887;28;20205;-88
2022/01/19 09:53:26;;;;;;;75.43;21.77;;;;;;;;;;5069762;28;20217;-89
2022/01/19 09:55:53;;;;;;;72.87;20.80;;;6.20;99.90;;;;;;5067998;28;20668;-89
2022/01/19 09:58:22;;;;;;;70.87;20.37;;;6.10;99.90;;;;;;5067951;28;20319;-89
2022/01/19 10:00:49;;;;;;;60.50;18.13;;;6.20;99.90;;;;;;5068325;28;20232;-88
2022/01/19 10:03:19;;;;;;;64.70;20.70;;;5.70;99.90;;;;;;5070392;28;20204;-89
2022/01/19 10:06:02;;;;;;;69.70;19.60;;;6.10;99.90;;;;;;5085395;28;20230;-89
2022/01/19 10:08:30;;;;;;;59.37;17.73;;;6.10;99.90;;;;;;5068570;28;20212;-88
2022/01/19 10:11:21;;;;;;;65.57;20.13;;;6.10;99.90;;;;;;5072408;28;20667;-89
2022/01/19 10:19:23;;;;;;;70.37;18.97;;;6.00;99.90;;;;;;5073233;28;20595;-89
2022/01/19 10:22:13;;;;;;;64.13;20.03;;;6.10;99.90;;;;;;5072216;28;20231;-87
2022/01/19 10:24:50;;;;;;;68.33;20.37;;;6.20;99.90;;;;;;5068932;28;20693;-88
2022/01/19 10:27:36;;;;;;;67.50;19.50;;;6.30;99.90;;;;;;5066416;28;20456;-87
2022/01/19 10:30:25;;;;;;;65.30;19.37;;;6.40;99.90;;;;;;5069958;28;20212;-88
2022/01/19 10:32:56;;;;;;;53.03;16.97;;;6.30;99.90;;;;;;5071155;28;20307;-88
2022/01/19 10:35:29;;;;;;;71.90;21.30;;;6.30;99.90;;;;;;5062856;28;20707;-88
2022/01/19 10:38:14;;;;;;;53.07;17.67;;;6.50;99.90;;;;;;5070002;28;20212;-89
2022/01/19 10:40:45;;;;;;;62.50;19.57;;;6.50;99.90;;;;;;5069797;28;20205;-89
2022/01/19 10:43:26;;;;;;;64.53;19.53;;;8.00;99.90;;;;;;5071264;28;20245;-88
2022/01/19 10:45:54;;;;;;;69.17;18.80;;;6.60;99.90;;;;;;5070811;28;20233;-88
2022/01/19 10:48:32;;;;;;;62.43;19.10;;;7.10;99.90;;;;;;5063416;28;20217;-88
2022/01/19 10:51:12;;;;;;;65.77;19.30;;;6.70;99.90;;;;;;5072301;28;20215;-89
2022/01/19 10:53:45;;;;;;;86.63;22.33;;;6.70;99.90;;;;;;5068956;28;20269;-89
2022/01/19 10:56:27;;;;;;;68.53;18.63;;;6.70;99.90;;;;;;5070970;28;20247;-89
2022/01/19 10:58:57;;;;;;;81.83;21.77;;;6.70;99.90;;;;;;5069399;28;20299;-89
2022/01/19 11:01:40;;;;;;;79.50;21.67;;;6.70;99.90;;;;;;5070895;28;20229;-88
2022/01/19 11:04:30;;;;;;;80.57;22.30;;;6.70;99.90;;;;;;5070777;28;20684;-89
2022/01/19 11:07:01;;;;;;;62.73;18.77;;;6.70;99.90;;;;;;5074750;28;20579;-88
2022/01/19 11:09:30;;;;;;;63.43;19.70;;;6.70;99.90;;;;;;5072123;28;20231;-88
2022/01/19 11:12:02;;;;;;;80.93;22.17;;;6.70;99.90;;;;;;5068229;28;20373;-89
2022/01/19 11:14:30;;;;;;;72.63;21.03;;;6.80;99.90;;;;;;5081029;28;20234;-88
2022/01/19 11:16:58;;;;;;;58.33;18.17;;;6.80;99.90;;;;;;5067733;28;20211;-88
2022/01/19 11:19:26;;;;;;;50.17;16.50;;;6.80;99.90;;;;;;5066702;28;20209;-88
2022/01/19 11:22:06;;;;;;;58.63;17.80;;;6.90;99.90;;;;;;5076271;28;20283;-87
2022/01/19 11:24:42;;;;;;;59.13;16.30;;;6.80;99.90;;;;;;5070823;28;20664;-88
2022/01/19 11:27:10;;;;;;;63.70;18.77;;;6.80;99.90;;;;;;5071063;28;20216;-87
2022/01/19 11:29:38;;;;;;;57.23;16.90;;;7.60;99.90;;;;;;5071204;28;20241;-87
2022/01/19 11:32:15;;;;;;;59.97;18.50;;;6.80;99.90;;;;;;5072297;28;20211;-88
2022/01/19 11:34:46;;;;;;;52.63;16.50;;;6.80;99.90;;;;;;5070715;28;20234;-87
2022/01/19 11:37:14;;;;;;;56.27;18.03;;;;;;;;;;5071668;28;20299;-88
2022/01/19 11:40:01;;;;;;;57.23;17.40;;;6.90;99.90;;;;;;5070413;28;20237;-87
2022/01/19 11:42:28;;;;;;;47.77;16.27;;;6.90;99.90;;;;;;5071625;28;20869;-88
2022/01/19 11:44:55;;;;;;;61.43;19.07;;;7.00;99.90;;;;;;5070919;28;20229;-87
2022/01/19 11:47:24;;;;;;;59.20;17.87;;;7.00;99.90;;;;;;5070708;28;20205;-87
2022/01/19 11:49:54;;;;;;;54.60;18.03;;;7.00;99.90;;;;;;5070099;28;20214;-88
2022/01/19 11:52:24;;;;;;;63.27;18.97;;;7.00;99.90;;;;;;5059943;28;20209;-87
2022/01/19 11:54:52;;;;;;;57.53;17.93;;;7.00;99.90;;;;;;5063854;28;20228;-87
2022/01/19 11:57:28;;;;;;;59.60;18.33;;;7.00;99.90;;;;;;5069293;28;20217;-87
2022/01/19 12:00:23;;;;;;;66.80;19.43;;;7.10;99.90;;;;;;5067443;28;20285;-87
2022/01/19 12:02:53;;;;;;;62.00;19.60;;;6.90;99.90;;;;;;5071829;28;20222;-87
2022/01/19 12:05:24;;;;;;;74.17;20.80;;;6.90;99.90;;;;;;5070537;28;20232;-87
2022/01/19 12:07:55;;;;;;;55.27;17.00;;;6.90;99.90;;;;;;5069706;28;20210;-87
2022/01/19 12:10:42;;;;;;;63.23;19.93;;;6.90;99.90;;;;;;5070764;28;20215;-87
2022/01/19 12:13:58;;;;;;;64.13;19.10;;;6.90;99.90;;;;;;5067867;28;20221;-87
2022/01/19 12:16:37;;;;;;;65.03;20.17;;;6.90;99.90;;;;;;5063375;28;20525;-89
2022/01/19 12:19:15;;;;;;;63.83;19.10;;;6.90;99.90;;;;;;5069257;28;20226;-87
2022/01/19 12:21:49;;;;;;;65.83;19.53;;;7.00;99.90;;;;;;5060162;28;20646;-87
2022/01/19 12:24:26;;;;;;;74.50;22.57;;;6.90;99.90;;;;;;5066088;28;20200;-87
2022/01/19 12:27:04;;;;;;;57.47;18.10;;;6.90;99.90;;;;;;5079455;28;20214;-88
2022/01/19 12:29:50;;;;;;;54.37;17.33;;;6.90;99.90;;;;;;5084559;28;20189;-87
2022/01/19 12:32:46;;;;;;;57.23;18.07;;;6.90;99.90;;;;;;5063992;28;20250;-87
2022/01/19 12:35:22;;;;;;;59.97;19.83;;;6.80;99.90;;;;;;5070316;28;20240;-86
2022/01/19 12:37:51;;;;;;;59.90;19.47;;;7.10;99.90;;;;;;5071746;28;20245;-87
2022/01/19 12:40:44;;;;;;;71.33;21.47;;;7.10;99.90;;;;;;5078994;28;20639;-86
2022/01/19 12:43:27;;;;;;;70.70;21.33;;;6.70;99.90;;;;;;5055191;28;20236;-86
2022/01/19 12:45:56;;;;;;;69.20;19.33;;;6.40;99.90;;;;;;5072223;28;20230;-86
2022/01/19 12:48:35;;;;;;;61.20;19.30;;;6.60;99.90;;;;;;5074961;28;20331;-85
2022/01/19 12:51:02;;;;;;;52.87;17.87;;;6.60;99.90;;;;;;5067873;28;20227;-86
2022/01/19 12:53:29;;;;;;;66.57;18.87;;;6.60;99.90;;;;;;5072947;28;20227;-85
2022/01/19 12:55:59;;;;;;;70.37;21.33;;;6.60;99.90;;;;;;5074637;28;20252;-85
2022/01/19 12:58:33;;;;;;;66.20;19.90;;;6.70;99.90;;;;;;5070478;28;20216;-87
2022/01/19 13:01:05;;;;;;;57.27;19.10;;;6.70;99.90;;;;;;5075524;28;20224;-84
2022/01/19 13:03:35;;;;;;;65.33;20.90;;;7.00;99.90;;;;;;5071070;28;20228;-87
2022/01/19 13:06:05;;;;;;;69.07;20.50;;;6.70;99.90;;;;;;5069549;28;20319;-88
2022/01/19 13:08:38;;;;;;;51.87;16.07;;;6.60;99.90;;;;;;5070616;28;20287;-88
2022/01/19 13:11:24;;;;;;;75.70;20.90;;;6.60;99.90;;;;;;5070198;28;20219;-87
2022/01/19 13:13:58;;;;;;;54.30;19.10;;;6.50;99.90;;;;;;5071328;28;20216;-88
2022/01/19 13:16:38;;;;;;;57.97;16.77;;;6.50;99.90;;;;;;5069421;28;20228;-88
2022/01/19 13:19:11;;;;;;;63.63;19.97;;;6.40;99.90;;;;;;5067338;28;20220;-87
2022/01/19 13:21:41;;;;;;;66.10;20.80;;;6.40;99.90;;;;;;5065818;28;20210;-88
2022/01/19 13:24:13;;;;;;;70.83;21.37;;;6.40;99.90;;;;;;5070998;28;20714;-88
2022/01/19 13:26:43;;;;;;;66.53;20.70;;;6.40;99.90;;;;;;5063820;28;20213;-88
2022/01/19 13:29:15;;;;;;;68.47;18.60;;;6.40;99.90;;;;;;5070077;28;20238;-88
2022/01/19 13:32:00;;;;;;;89.93;22.40;;;6.90;99.90;;;;;;5068563;28;20208;-88
2022/01/19 13:34:28;;;;;;;69.40;20.87;;;6.40;99.90;;;;;;5064934;28;20282;-88
2022/01/19 13:36:59;;;;;;;57.07;17.40;;;6.90;99.90;;;;;;5070376;28;20291;-88
2022/01/19 13:39:26;;;;;;;62.37;19.73;;;6.40;99.90;;;;;;5069483;28;20211;-89
2022/01/19 13:41:54;;;;;;;60.13;18.57;;;6.40;99.90;;;;;;5070537;28;20767;-89
2022/01/19 13:44:30;;;;;;;60.80;18.33;;;6.20;99.90;;;;;;5068776;28;20963;-88
2022/01/19 13:47:16;;;;;;;68.20;19.93;;;6.30;99.90;;;;;;5068925;28;20208;-87
2022/01/19 13:49:52;;;;;;;63.57;20.20;;;6.30;99.90;;;;;;5067063;28;20556;-85
2022/01/19 13:52:21;;;;;;;62.33;20.07;;;6.30;99.90;;;;;;5067528;28;20261;-86
2022/01/19 13:54:48;;;;;;;66.33;18.40;;;6.20;99.90;;;;;;5066843;28;20228;-87
2022/01/19 13:57:26;;;;;;;71.00;20.47;;;6.20;99.90;;;;;;5067649;28;20231;-88
2022/01/19 13:59:53;;;;;;;60.47;19.70;;;6.20;99.90;;;;;;5066826;28;20286;-88
2022/01/19 14:02:23;;;;;;;50.37;15.43;;;6.20;99.90;;;;;;5068550;28;21192;-89
2022/01/19 14:04:55;;;;;;;64.23;19.67;;;6.20;99.90;;;;;;5067936;28;20303;-88
2022/01/19 14:07:22;;;;;;;60.97;19.63;;;6.20;99.90;;;;;;5068905;28;20266;-88
2022/01/19 14:09:50;;;;;;;59.40;18.07;;;;;;;;;;5066995;28;20208;-88
2022/01/19 14:12:19;;;;;;;68.03;19.33;;;6.10;99.90;;;;;;5066878;28;20228;-88
2022/01/19 14:14:54;;;;;;;56.03;17.77;;;6.10;99.90;;;;;;5066331;28;20277;-87
2022/01/19 14:17:27;;;;;;;73.03;21.93;;;6.10;99.90;;;;;;5061541;28;20273;-88
2022/01/19 14:19:54;;;;;;;100.53;25.40;;;6.00;99.90;;;;;;5065993;28;20308;-89